Time;durP1;ratioP1;P1;durP2;ratioP2;P2;SDS_P1;SDS_P2;PMS_P1;PMS_P2;Temp;Humidity;BMP_temperature;BMP_pressure;BME280_temperature;BME280_humidity;BME280_pressure;Samples;Min_cycle;Max_cycle;Signal;HPM_P1;HPM_P2
2022/06/15 00:00:47;;;;;;;5.57;1.30;;;;;;;;;;5026457;28;20029;-79
2022/06/15 00:03:14;;;;;;;3.92;1.45;;;;;;;;;;5023573;28;20029;-79
2022/06/15 00:05:42;;;;;;;6.85;1.10;;;;;;;;;;5020295;28;20029;-79
2022/06/15 00:08:08;;;;;;;3.55;1.17;;;;;;;;;;5022668;28;20018;-79
2022/06/15 00:10:34;;;;;;;7.47;1.40;;;;;;;;;;5031244;28;20064;-78
2022/06/15 00:13:01;;;;;;;3.90;1.25;;;;;;;;;;5027325;28;20075;-78
2022/06/15 00:15:27;;;;;;;4.05;1.00;;;;;;;;;;5027610;28;20483;-79
2022/06/15 00:17:53;;;;;;;4.68;1.58;;;;;;;;;;5019252;28;20029;-79
2022/06/15 00:20:19;;;;;;;4.88;1.27;;;;;;;;;;5019589;28;20056;-79
2022/06/15 00:22:45;;;;;;;4.13;1.20;;;;;;;;;;5025461;28;20388;-79
2022/06/15 00:25:13;;;;;;;4.18;1.10;;;;;;;;;;5028582;28;20036;-79
2022/06/15 00:27:39;;;;;;;3.22;1.10;;;;;;;;;;5030861;28;20026;-79
2022/06/15 00:30:05;;;;;;;2.72;1.08;;;;;;;;;;5031584;28;20030;-79
2022/06/15 00:32:31;;;;;;;3.22;0.90;;;;;;;;;;5030485;28;20116;-79
2022/06/15 00:34:57;;;;;;;4.82;1.00;;;;;;;;;;5026493;28;20022;-79
2022/06/15 00:37:23;;;;;;;4.93;1.10;;;;;;;;;;5026579;28;20037;-79
2022/06/15 00:39:49;;;;;;;3.90;0.98;;;;;;;;;;5028026;28;20030;-79
2022/06/15 00:42:15;;;;;;;3.17;1.02;;;;;;;;;;5019961;28;20044;-78
2022/06/15 00:44:42;;;;;;;3.33;0.90;;;;;;;;;;5020275;28;20069;-79
2022/06/15 00:47:22;;;;;;;2.85;0.82;;;;;;;;;;5015679;28;20034;-79
2022/06/15 00:49:55;;;;;;;3.83;0.80;;;;;;;;;;5025603;28;20053;-79
2022/06/15 00:52:28;;;;;;;5.72;1.30;;;;;;;;;;5018273;28;20033;-79
2022/06/15 00:54:54;;;;;;;3.35;1.20;;;;;;;;;;5015242;28;20038;-79
2022/06/15 00:57:20;;;;;;;4.55;1.20;;;;;;;;;;5027990;28;20491;-79
2022/06/15 00:59:52;;;;;;;3.83;1.23;;;;;;;;;;5026229;28;20030;-79
2022/06/15 01:02:18;;;;;;;;;;;;;;;;;;5028865;28;20037;-79
2022/06/15 01:04:46;;;;;;;3.20;0.80;;;;;;;;;;5025130;28;19918;-79
2022/06/15 01:07:12;;;;;;;2.75;1.00;;;;;;;;;;5019554;28;20064;-78
2022/06/15 01:09:44;;;;;;;1.67;0.70;;;;;;;;;;5021839;28;20717;-79
2022/06/15 01:12:17;;;;;;;2.97;1.10;;;;;;;;;;5020779;28;20045;-79
2022/06/15 01:14:56;;;;;;;3.95;1.05;;;;;;;;;;5016647;28;20049;-79
2022/06/15 01:17:25;;;;;;;5.90;1.38;;;;;;;;;;5021335;28;20088;-79
2022/06/15 01:20:00;;;;;;;5.22;1.10;;;;;;;;;;5020778;28;20043;-79
2022/06/15 01:22:45;;;;;;;4.53;1.50;;;;;;;;;;5022948;28;20046;-78
2022/06/15 01:25:11;;;;;;;4.25;1.25;;;;;;;;;;5020259;28;20030;-79
2022/06/15 01:27:37;;;;;;;3.72;1.02;;;;;;;;;;5027447;28;20026;-79
2022/06/15 01:30:11;;;;;;;5.07;1.30;;;;;;;;;;5030573;28;20049;-79
2022/06/15 01:32:42;;;;;;;3.53;0.93;;;;;;;;;;5028191;28;20099;-78
2022/06/15 01:35:13;;;;;;;4.73;1.17;;;;;;;;;;5030127;28;20048;-79
2022/06/15 01:37:47;;;;;;;7.38;1.08;;;;;;;;;;5029411;28;20419;-79
2022/06/15 01:40:13;;;;;;;3.00;1.08;;;;;;;;;;5019208;28;20034;-79
2022/06/15 01:42:43;;;;;;;3.70;0.93;;;;;;;;;;5029529;28;20475;-79
2022/06/15 01:45:15;;;;;;;3.63;0.95;;;;;;;;;;5018537;28;20463;-79
2022/06/15 01:47:42;;;;;;;2.80;1.02;;;;;;;;;;5029152;28;20033;-79
2022/06/15 01:50:10;;;;;;;4.03;1.50;;;;;;;;;;5022994;28;20088;-79
2022/06/15 01:52:47;;;;;;;3.83;1.33;;;;;;;;;;5022162;28;20108;-79
2022/06/15 01:55:15;;;;;;;3.20;1.00;;;;;;;;;;5020469;28;20029;-79
2022/06/15 01:57:41;;;;;;;3.67;1.30;;;;;;;;;;5020511;28;20068;-79
2022/06/15 02:00:17;;;;;;;3.72;1.00;;;;;;;;;;5023553;28;20029;-79
2022/06/15 02:02:58;;;;;;;3.95;1.17;;;;;;;;;;5020341;28;20038;-79
2022/06/15 02:05:50;;;;;;;4.47;0.80;;;;;;;;;;5026381;28;20037;-79
2022/06/15 02:08:22;;;;;;;3.65;0.93;;;;;;;;;;5015979;28;20064;-79
2022/06/15 02:10:51;;;;;;;5.53;1.13;;;;;;;;;;5012548;28;20030;-79
2022/06/15 02:13:22;;;;;;;8.63;1.35;;;;;;;;;;5029146;28;20061;-79
2022/06/15 02:15:50;;;;;;;3.78;1.08;;;;;;;;;;5021303;28;20040;-79
2022/06/15 02:18:18;;;;;;;5.50;0.98;;;;;;;;;;5017952;28;20459;-79
2022/06/15 02:20:47;;;;;;;7.78;1.08;;;;;;;;;;5023240;28;20117;-79
2022/06/15 02:23:14;;;;;;;3.83;0.90;;;;;;;;;;5021219;28;20029;-79
2022/06/15 02:25:43;;;;;;;3.95;0.90;;;;;;;;;;5021692;28;20176;-79
2022/06/15 02:28:09;;;;;;;3.58;1.00;;;;;;;;;;5024643;28;20099;-79
2022/06/15 02:30:36;;;;;;;8.82;1.60;;;;;;;;;;5029118;28;20518;-79
2022/06/15 02:33:12;;;;;;;6.22;1.13;;;;;;;;;;5026457;28;20087;-79
2022/06/15 02:35:38;;;;;;;5.28;1.30;;;;;;;;;;5025988;28;20041;-79
2022/06/15 02:38:04;;;;;;;6.45;1.20;;;;;;;;;;5019659;28;20112;-78
2022/06/15 02:40:30;;;;;;;6.03;1.10;;;;;;;;;;5028055;28;20916;-79
2022/06/15 02:42:57;;;;;;;4.15;1.00;;;;;;;;;;5017890;28;20026;-79
2022/06/15 02:45:29;;;;;;;4.65;0.90;;;;;;;;;;5013093;28;20096;-79
2022/06/15 02:47:56;;;;;;;10.70;0.90;;;;;;;;;;5014944;28;20025;-79
2022/06/15 02:50:22;;;;;;;3.97;0.95;;;;;;;;;;5026721;28;20061;-79
2022/06/15 02:52:55;;;;;;;6.68;0.90;;;;;;;;;;5029838;28;20018;-79
2022/06/15 02:55:22;;;;;;;4.50;1.20;;;;;;;;;;5028594;28;20144;-79
2022/06/15 02:57:53;;;;;;;3.42;1.00;;;;;;;;;;5014726;28;20052;-79
2022/06/15 03:00:21;;;;;;;5.68;1.17;;;;;;;;;;5012961;28;20490;-78
2022/06/15 03:02:47;;;;;;;3.20;1.08;;;;;;;;;;5012157;28;20029;-79
2022/06/15 03:05:13;;;;;;;2.28;1.00;;;;;;;;;;5029478;28;20044;-79
2022/06/15 03:07:39;;;;;;;6.10;1.13;;;;;;;;;;5028430;28;20041;-79
2022/06/15 03:10:06;;;;;;;3.88;1.02;;;;;;;;;;5027703;28;20037;-79
2022/06/15 03:12:32;;;;;;;3.95;1.10;;;;;;;;;;5010265;28;20495;-79
2022/06/15 03:14:58;;;;;;;6.55;1.35;;;;;;;;;;5026352;28;20037;-79
2022/06/15 03:17:24;;;;;;;5.13;1.67;;;;;;;;;;5023268;28;20034;-79
2022/06/15 03:19:50;;;;;;;6.43;1.45;;;;;;;;;;5025394;28;20111;-79
2022/06/15 03:22:16;;;;;;;3.38;1.10;;;;;;;;;;5017873;28;20037;-79
2022/06/15 03:24:42;;;;;;;8.30;1.15;;;;;;;;;;5022810;28;20471;-79
2022/06/15 03:27:08;;;;;;;3.85;0.90;;;;;;;;;;5030118;28;20031;-79
2022/06/15 03:29:36;;;;;;;2.63;0.82;;;;;;;;;;5026981;28;20040;-79
2022/06/15 03:32:02;;;;;;;6.88;1.42;;;;;;;;;;5027020;28;20022;-79
2022/06/15 03:34:28;;;;;;;4.43;1.30;;;;;;;;;;5022772;28;20394;-79
2022/06/15 03:36:54;;;;;;;3.63;1.35;;;;;;;;;;5032320;28;20391;-79
2022/06/15 03:39:20;;;;;;;3.03;0.90;;;;;;;;;;5022161;28;20033;-79
2022/06/15 03:41:46;;;;;;;2.75;1.02;;;;;;;;;;5032187;28;20030;-79
2022/06/15 03:44:12;;;;;;;3.92;1.08;;;;;;;;;;5031564;28;20041;-79
2022/06/15 03:46:38;;;;;;;3.15;1.00;;;;;;;;;;5027987;28;20026;-79
2022/06/15 03:49:06;;;;;;;3.90;1.15;;;;;;;;;;5025459;28;20176;-78
2022/06/15 03:51:32;;;;;;;6.30;1.13;;;;;;;;;;5026499;28;20030;-79
2022/06/15 03:53:58;;;;;;;7.95;1.70;;;;;;;;;;5025787;28;20044;-79
2022/06/15 03:56:24;;;;;;;5.30;1.50;;;;;;;;;;5024166;28;20598;-79
2022/06/15 03:58:50;;;;;;;4.82;1.08;;;;;;;;;;5032306;28;20359;-79
2022/06/15 04:01:16;;;;;;;4.72;1.00;;;;;;;;;;5020813;28;20124;-79
2022/06/15 04:03:42;;;;;;;4.18;0.90;;;;;;;;;;5032116;28;20045;-79
2022/06/15 04:06:08;;;;;;;2.72;1.10;;;;;;;;;;5017481;28;20053;-79
2022/06/15 04:08:42;;;;;;;7.20;1.30;;;;;;;;;;5012429;28;20072;-79
2022/06/15 04:11:58;;;;;;;4.43;1.40;;;;;;;;;;5025738;28;20029;-79
2022/06/15 04:13:58;;;;;;;3.88;1.42;;;;;;;;;;5028194;28;20049;-79
2022/06/15 04:16:24;;;;;;;7.05;1.70;;;;;;;;;;5025999;28;20034;-79
2022/06/15 04:18:50;;;;;;;3.63;1.40;;;;;;;;;;5011864;28;20048;-79
2022/06/15 04:21:16;;;;;;;4.07;1.60;;;;;;;;;;5026572;28;20040;-79
2022/06/15 04:23:42;;;;;;;6.93;1.45;;;;;;;;;;5021196;28;20037;-79
2022/06/15 04:26:09;;;;;;;6.63;1.15;;;;;;;;;;5030424;28;20044;-79
2022/06/15 04:28:38;;;;;;;5.78;1.38;;;;;;;;;;5030738;28;20351;-79
2022/06/15 04:31:04;;;;;;;4.03;1.00;;;;;;;;;;5024684;28;20044;-79
2022/06/15 04:33:30;;;;;;;7.65;1.40;;;;;;;;;;5030090;28;20375;-78
2022/06/15 04:35:57;;;;;;;4.88;1.17;;;;;;;;;;5024223;28;20040;-79
2022/06/15 04:38:23;;;;;;;7.00;1.20;;;;;;;;;;5027421;28;20788;-79
2022/06/15 04:40:49;;;;;;;6.28;1.50;;;;;;;;;;5020387;28;20037;-79
2022/06/15 04:43:15;;;;;;;6.68;1.88;;;;;;;;;;5023973;28;20076;-79
2022/06/15 04:45:41;;;;;;;5.78;1.23;;;;;;;;;;5023324;28;20041;-79
2022/06/15 04:48:09;;;;;;;7.25;1.30;;;;;;;;;;5030693;28;20682;-79
2022/06/15 04:50:36;;;;;;;8.27;1.52;;;;;;;;;;5029939;28;20046;-79
2022/06/15 04:53:02;;;;;;;4.38;1.45;;;;;;;;;;5017006;28;20102;-79
2022/06/15 04:55:28;;;;;;;5.93;2.33;;;;;;;;;;5018411;28;20033;-79
2022/06/15 04:57:56;;;;;;;5.38;1.55;;;;;;;;;;5026938;28;20033;-79
2022/06/15 05:00:24;;;;;;;7.22;1.73;;;;;;;;;;5016891;28;20710;-79
2022/06/15 05:02:50;;;;;;;6.80;1.30;;;;;;;;;;5019809;28;20479;-79
2022/06/15 05:05:17;;;;;;;7.30;1.52;;;;;;;;;;5018798;28;20041;-79
2022/06/15 05:07:45;;;;;;;5.43;1.55;;;;;;;;;;5029903;28;20026;-79
2022/06/15 05:10:13;;;;;;;4.57;1.33;;;;;;;;;;5030595;28;20103;-79
2022/06/15 05:12:39;;;;;;;5.78;1.58;;;;;;;;;;5019138;28;20091;-79
2022/06/15 05:15:05;;;;;;;6.18;1.40;;;;;;;;;;5024649;28;20036;-78
2022/06/15 05:17:31;;;;;;;4.65;1.50;;;;;;;;;;5020023;28;20168;-79
2022/06/15 05:19:57;;;;;;;5.13;1.20;;;;;;;;;;5028635;28;20037;-79
2022/06/15 05:22:23;;;;;;;8.85;1.73;;;;;;;;;;5027672;28;20033;-80
2022/06/15 05:24:50;;;;;;;3.42;1.33;;;;;;;;;;5030227;28;20464;-79
2022/06/15 05:27:16;;;;;;;9.77;1.77;;;;;;;;;;5025113;28;20080;-79
2022/06/15 05:29:42;;;;;;;6.20;1.60;;;;;;;;;;5024032;28;20037;-78
2022/06/15 05:32:08;;;;;;;7.70;1.30;;;;;;;;;;5018314;28;20049;-78
2022/06/15 05:34:35;;;;;;;10.02;1.60;;;;;;;;;;5021614;28;20033;-80
2022/06/15 05:37:01;;;;;;;6.55;1.38;;;;;;;;;;5027462;28;20033;-80
2022/06/15 05:39:30;;;;;;;5.15;1.42;;;;;;;;;;5019964;28;20995;-80
2022/06/15 05:41:56;;;;;;;5.30;1.40;;;;;;;;;;5026032;28;20034;-79
2022/06/15 05:46:58;;;;;;;6.43;1.48;;;;;;;;;;5015219;28;20061;-80
2022/06/15 05:49:24;;;;;;;7.53;2.03;;;;;;;;;;5014896;28;20049;-80
2022/06/15 05:51:50;;;;;;;6.93;1.48;;;;;;;;;;5021807;28;20084;-80
2022/06/15 05:54:16;;;;;;;9.05;1.90;;;;;;;;;;5021911;28;20044;-79
2022/06/15 05:56:43;;;;;;;6.97;1.65;;;;;;;;;;5010765;28;20034;-80
2022/06/15 05:59:09;;;;;;;6.75;1.95;;;;;;;;;;5023335;28;20059;-79
2022/06/15 06:01:35;;;;;;;5.95;1.40;;;;;;;;;;5019934;28;20037;-80
2022/06/15 06:04:02;;;;;;;4.18;1.40;;;;;;;;;;5025311;28;20042;-80
2022/06/15 06:06:29;;;;;;;7.38;1.50;;;;;;;;;;5028155;28;20040;-80
2022/06/15 06:08:55;;;;;;;3.90;1.23;;;;;;;;;;5023942;28;20021;-79
2022/06/15 06:11:22;;;;;;;7.78;1.45;;;;;;;;;;5011713;28;20084;-80
2022/06/15 06:13:48;;;;;;;5.53;1.25;;;;;;;;;;5020065;28;20506;-80
2022/06/15 06:16:14;;;;;;;7.85;1.35;;;;;;;;;;5021855;28;20116;-79
2022/06/15 06:18:40;;;;;;;8.05;1.52;;;;;;;;;;5023675;28;20120;-80
2022/06/15 06:21:07;;;;;;;13.02;1.67;;;;;;;;;;5025372;28;20025;-80
2022/06/15 06:23:33;;;;;;;11.88;1.50;;;;;;;;;;5024131;28;20468;-79
2022/06/15 06:26:00;;;;;;;5.93;1.58;;;;;;;;;;5014763;28;20022;-80
2022/06/15 06:28:28;;;;;;;6.97;1.10;;;;;;;;;;5026940;28;20044;-80
2022/06/15 06:30:57;;;;;;;5.70;1.02;;;;;;;;;;5027949;28;20029;-80
2022/06/15 06:33:23;;;;;;;5.07;1.40;;;;;;;;;;5014962;28;20406;-80
2022/06/15 06:35:49;;;;;;;5.10;1.83;;;;;;;;;;5022339;28;20037;-80
2022/06/15 06:38:15;;;;;;;6.18;1.75;;;;;;;;;;5018906;28;20034;-79
2022/06/15 06:40:41;;;;;;;5.63;1.52;;;;;;;;;;5028814;28;20072;-80
2022/06/15 06:43:07;;;;;;;9.52;1.80;;;;;;;;;;5026932;28;20132;-79
2022/06/15 06:45:33;;;;;;;9.85;1.80;;;;;;;;;;5029047;28;20069;-80
2022/06/15 06:48:00;;;;;;;7.85;1.52;;;;;;;;;;5018267;28;20034;-79
2022/06/15 06:50:26;;;;;;;5.97;1.70;;;;;;;;;;5013493;28;20058;-80
2022/06/15 06:52:53;;;;;;;6.82;1.90;;;;;;;;;;5027600;28;20761;-80
2022/06/15 06:55:24;;;;;;;6.82;1.58;;;;;;;;;;5029454;28;20504;-79
2022/06/15 06:57:53;;;;;;;8.88;1.52;;;;;;;;;;5027910;28;20031;-80
2022/06/15 07:00:19;;;;;;;4.10;1.40;;;;;;;;;;5024020;28;20510;-80
2022/06/15 07:02:45;;;;;;;10.20;1.33;;;;;;;;;;5023417;28;20025;-79
2022/06/15 07:05:11;;;;;;;3.50;1.45;;;;;;;;;;5031003;28;20052;-80
2022/06/15 07:07:37;;;;;;;6.75;1.50;;;;;;;;;;5029472;28;20025;-79
2022/06/15 07:10:04;;;;;;;4.97;1.63;;;;;;;;;;5028973;28;20025;-80
2022/06/15 07:12:30;;;;;;;7.05;1.45;;;;;;;;;;5022567;28;20391;-80
2022/06/15 07:14:56;;;;;;;5.82;1.73;;;;;;;;;;5014979;28;20042;-80
2022/06/15 07:17:22;;;;;;;8.35;1.98;;;;;;;;;;5029119;28;20076;-80
2022/06/15 07:19:48;;;;;;;6.68;1.85;;;;;;;;;;5027867;28;20037;-80
2022/06/15 07:22:14;;;;;;;6.82;1.73;;;;;;;;;;5025179;28;20036;-80
2022/06/15 07:24:41;;;;;;;7.20;1.65;;;;;;;;;;5020563;28;20133;-80
2022/06/15 07:27:07;;;;;;;10.30;2.10;;;;;;;;;;5024205;28;20026;-80
2022/06/15 07:29:33;;;;;;;9.10;1.77;;;;;;;;;;5026976;28;20647;-81
2022/06/15 07:31:59;;;;;;;7.03;1.55;;;;;;;;;;5028814;28;20095;-79
2022/06/15 07:34:25;;;;;;;12.45;1.92;;;;;;;;;;5016250;28;20040;-80
2022/06/15 07:36:51;;;;;;;8.45;1.80;;;;;;;;;;5028416;28;20037;-79
2022/06/15 07:39:19;;;;;;;10.07;2.00;;;;;;;;;;5029607;28;20546;-80
2022/06/15 07:41:46;;;;;;;8.10;1.80;;;;;;;;;;5029836;28;20029;-80
2022/06/15 07:44:13;;;;;;;8.75;1.67;;;;;;;;;;5027276;28;20455;-80
2022/06/15 07:46:39;;;;;;;9.35;2.05;;;;;;;;;;5024547;28;20426;-80
2022/06/15 07:51:54;;;;;;;7.43;1.58;;;;;;;;;;5027965;28;20587;-80
2022/06/15 07:54:21;;;;;;;9.38;1.95;;;;;;;;;;5030672;28;20125;-80
2022/06/15 07:56:48;;;;;;;6.63;1.77;;;;;;;;;;5029700;28;20120;-80
2022/06/15 07:59:14;;;;;;;4.53;1.50;;;;;;;;;;5030392;28;20052;-80
2022/06/15 08:01:41;;;;;;;8.30;1.92;;;;;;;;;;5022896;28;20040;-80
2022/06/15 08:04:07;;;;;;;8.20;1.73;;;;;;;;;;5024521;28;20045;-80
2022/06/15 08:06:34;;;;;;;14.50;1.60;;;;;;;;;;5020631;28;20037;-79
2022/06/15 08:09:01;;;;;;;10.43;1.75;;;;;;;;;;5027708;28;20061;-80
2022/06/15 08:11:28;;;;;;;8.85;1.50;;;;;;;;;;5027684;28;20100;-80
2022/06/15 08:13:55;;;;;;;5.57;1.65;;;;;;;;;;5014967;28;20038;-80
2022/06/15 08:16:21;;;;;;;11.15;1.88;;;;;;;;;;5025609;28;20025;-80
2022/06/15 08:18:49;;;;;;;11.88;2.28;;;;;;;;;;5021317;28;20033;-80
2022/06/15 08:21:23;;;;;;;5.65;1.75;;;;;;;;;;5025490;28;20112;-80
2022/06/15 08:23:50;;;;;;;10.40;1.77;;;;;;;;;;5021341;28;20376;-80
2022/06/15 08:26:18;;;;;;;6.28;1.60;;;;;;;;;;5025158;28;20534;-80
2022/06/15 08:28:47;;;;;;;10.93;2.08;;;;;;;;;;5028692;28;20057;-80
2022/06/15 08:31:14;;;;;;;8.40;2.45;;;;;;;;;;5023466;28;20075;-80
2022/06/15 08:33:40;;;;;;;8.57;1.80;;;;;;;;;;5030093;28;20029;-80
2022/06/15 08:36:07;;;;;;;8.38;1.70;;;;;;;;;;5017501;28;20029;-80
2022/06/15 08:38:33;;;;;;;15.18;2.58;;;;;;;;;;5026448;28;20152;-80
2022/06/15 08:41:05;;;;;;;10.40;1.92;;;;;;;;;;5025906;28;20105;-80
2022/06/15 08:43:31;;;;;;;;;;;;;;;;;;5022619;28;20033;-80
2022/06/15 08:46:01;;;;;;;6.50;1.33;;;;;;;;;;5024450;28;19958;-78
2022/06/15 08:48:36;;;;;;;8.93;1.45;;;;;;;;;;5028570;28;20026;-80
2022/06/15 08:51:15;;;;;;;5.80;1.30;;;;;;;;;;5027233;28;20029;-79
2022/06/15 08:54:00;;;;;;;4.82;1.67;;;;;;;;;;5022684;28;20030;-79
2022/06/15 08:56:30;;;;;;;4.53;1.13;;;;;;;;;;5021140;28;20044;-79
2022/06/15 08:58:55;;;;;;;5.68;1.23;;;;;;;;;;5029029;28;20061;-79
2022/06/15 09:01:35;;;;;;;6.18;1.20;;;;;;;;;;5027229;28;20509;-80
2022/06/15 09:04:07;;;;;;;4.15;1.00;;;;;;;;;;5025501;28;20109;-79
2022/06/15 09:06:39;;;;;;;6.68;1.60;;;;;;;;;;5025815;28;20041;-79
2022/06/15 09:09:14;;;;;;;8.18;1.20;;;;;;;;;;5029493;28;20041;-79
2022/06/15 09:12:49;;;;;;;13.30;2.00;;;;;;;;;;5030209;28;20034;-80
2022/06/15 09:15:10;;;;;;;9.25;1.92;;;;;;;;;;5023179;28;20042;-79
2022/06/15 09:17:37;;;;;;;8.00;1.80;;;;;;;;;;5028728;28;20566;-79
2022/06/15 09:20:06;;;;;;;9.30;2.20;;;;;;;;;;5023267;28;20037;-79
2022/06/15 09:22:38;;;;;;;7.95;1.80;;;;;;;;;;5026443;28;20037;-79
2022/06/15 09:25:16;;;;;;;8.23;1.80;;;;;;;;;;5024154;28;20561;-79
2022/06/15 09:27:47;;;;;;;11.10;1.50;;;;;;;;;;5017401;28;20546;-79
2022/06/15 09:30:24;;;;;;;8.27;1.85;;;;;;;;;;5026779;28;20054;-79
2022/06/15 09:33:02;;;;;;;6.47;1.70;;;;;;;;;;5020956;28;20029;-80
2022/06/15 09:35:31;;;;;;;8.63;1.45;;;;;;;;;;5024518;28;20061;-79
2022/06/15 09:37:59;;;;;;;11.68;1.95;;;;;;;;;;5019918;28;20080;-79
2022/06/15 09:40:43;;;;;;;4.78;1.63;;;;;;;;;;5023613;28;20116;-79
2022/06/15 09:43:19;;;;;;;7.25;1.70;;;;;;;;;;5026744;28;20065;-80
2022/06/15 09:45:47;;;;;;;9.63;1.52;;;;;;;;;;5026531;28;20033;-79
2022/06/15 09:48:32;;;;;;;9.52;1.70;;;;;;;;;;5019053;28;20038;-79
2022/06/15 09:50:58;;;;;;;4.65;1.60;;;;;;;;;;5030717;28;20056;-80
2022/06/15 09:53:45;;;;;;;9.13;1.88;;;;;;;;;;5020872;28;20060;-79
2022/06/15 09:56:13;;;;;;;10.38;1.75;;;;;;;;;;5022965;28;20037;-79
2022/06/15 09:58:45;;;;;;;6.63;1.60;;;;;;;;;;5019867;28;20033;-80
2022/06/15 10:01:12;;;;;;;6.07;1.60;;;;;;;;;;5028004;28;20566;-79
2022/06/15 10:03:46;;;;;;;10.07;1.80;;;;;;;;;;5019028;28;20115;-80
2022/06/15 10:06:12;;;;;;;7.38;1.45;;;;;;;;;;5023534;28;20816;-79
2022/06/15 10:08:38;;;;;;;5.63;1.25;;;;;;;;;;5026387;28;20056;-79
2022/06/15 10:11:11;;;;;;;7.78;1.52;;;;;;;;;;5026207;28;20383;-80
2022/06/15 10:13:38;;;;;;;8.23;1.30;;;;;;;;;;5029000;28;20063;-79
2022/06/15 10:16:16;;;;;;;7.55;1.65;;;;;;;;;;5028681;28;20040;-80
2022/06/15 10:18:46;;;;;;;4.68;1.27;;;;;;;;;;5029225;28;20038;-80
2022/06/15 10:21:15;;;;;;;6.55;1.60;;;;;;;;;;5028024;28;20032;-79
2022/06/15 10:23:48;;;;;;;8.52;1.63;;;;;;;;;;5023253;28;20037;-79
2022/06/15 10:26:26;;;;;;;4.43;1.67;;;;;;;;;;5023909;28;20037;-80
2022/06/15 10:28:52;;;;;;;4.75;1.60;;;;;;;;;;5028939;28;20022;-80
2022/06/15 10:31:24;;;;;;;3.28;1.30;;;;;;;;;;5031759;28;20045;-80
2022/06/15 10:33:50;;;;;;;7.40;1.50;;;;;;;;;;5029667;28;20056;-79
2022/06/15 10:36:27;;;;;;;8.05;2.03;;;;;;;;;;5015799;28;20037;-80
2022/06/15 10:38:57;;;;;;;7.15;2.13;;;;;;;;;;5030261;28;20033;-80
2022/06/15 10:41:53;;;;;;;7.03;1.77;;;;;;;;;;5026746;28;20099;-80
2022/06/15 10:44:19;;;;;;;5.40;1.40;;;;;;;;;;5028510;28;20600;-80
2022/06/15 10:46:57;;;;;;;9.82;1.55;;;;;;;;;;5027485;28;20041;-79
2022/06/15 10:49:24;;;;;;;5.72;1.45;;;;;;;;;;5030373;28;20060;-80
2022/06/15 10:51:51;;;;;;;6.35;1.80;;;;;;;;;;5029139;28;20427;-79
2022/06/15 10:54:23;;;;;;;4.00;1.23;;;;;;;;;;5031005;28;20029;-80
2022/06/15 11:02:42;;;;;;;6.35;1.58;;;;;;;;;;5024733;28;20541;-80
2022/06/15 11:05:08;;;;;;;5.70;1.98;;;;;;;;;;5021072;28;20482;-80
2022/06/15 11:07:40;;;;;;;8.95;1.75;;;;;;;;;;5017317;28;20045;-79
2022/06/15 11:10:12;;;;;;;8.82;1.50;;;;;;;;;;5029582;28;20083;-80
2022/06/15 11:12:45;;;;;;;7.45;1.70;;;;;;;;;;5031296;28;20037;-79
2022/06/15 11:15:14;;;;;;;6.93;2.75;;;;;;;;;;5023552;28;20134;-80
2022/06/15 11:18:06;;;;;;;3.58;1.23;;;;;;;;;;5021595;28;20041;-80
2022/06/15 11:20:38;;;;;;;8.15;2.08;;;;;;;;;;5029799;28;20359;-80
2022/06/15 11:23:07;;;;;;;6.28;1.60;;;;;;;;;;5022749;28;20079;-80
2022/06/15 11:25:53;;;;;;;12.60;2.30;;;;;;;;;;5029660;28;20040;-79
2022/06/15 11:28:24;;;;;;;7.85;1.92;;;;;;;;;;5026171;28;20056;-78
2022/06/15 11:31:01;;;;;;;5.28;1.90;;;;;;;;;;5031816;28;20092;-78
2022/06/15 11:33:38;;;;;;;6.68;1.60;;;;;;;;;;5024065;28;20029;-78
2022/06/15 11:36:04;;;;;;;6.30;1.60;;;;;;;;;;5027765;28;20076;-78
2022/06/15 11:38:30;;;;;;;11.43;1.88;;;;;;;;;;5025921;28;20037;-78
2022/06/15 11:40:57;;;;;;;8.23;1.98;;;;;;;;;;5024551;28;20033;-80
2022/06/15 11:43:31;;;;;;;9.88;1.67;;;;;;;;;;5023326;28;20048;-80
2022/06/15 11:46:21;;;;;;;10.90;2.25;;;;;;;;;;5024940;28;20112;-80
2022/06/15 11:49:03;;;;;;;9.52;2.42;;;;;;;;;;5025213;28;20053;-79
2022/06/15 11:51:38;;;;;;;10.90;2.53;;;;;;;;;;5028906;28;20033;-80
2022/06/15 11:54:30;;;;;;;8.63;2.58;;;;;;;;;;5025294;28;20045;-80
2022/06/15 11:57:02;;;;;;;11.93;2.28;;;;;;;;;;5020845;28;20030;-78
2022/06/15 11:59:35;;;;;;;10.10;2.40;;;;;;;;;;5018361;28;20033;-78
2022/06/15 12:02:05;;;;;;;8.30;2.47;;;;;;;;;;5018947;28;20770;-79
2022/06/15 12:04:37;;;;;;;10.73;2.00;;;;;;;;;;5023433;28;20041;-78
2022/06/15 12:07:07;;;;;;;11.20;2.60;;;;;;;;;;5026912;28;20073;-80
2022/06/15 12:09:55;;;;;;;10.55;2.83;;;;;;;;;;5030258;28;20394;-78
2022/06/15 12:12:39;;;;;;;10.63;2.60;;;;;;;;;;5025355;28;20479;-80
2022/06/15 12:15:08;;;;;;;9.25;2.60;;;;;;;;;;5026757;28;20037;-80
2022/06/15 12:17:47;;;;;;;8.52;2.50;;;;;;;;;;5030271;28;20056;-78
2022/06/15 12:20:22;;;;;;;12.73;1.98;;;;;;;;;;5029810;28;20057;-78
2022/06/15 12:22:54;;;;;;;10.57;2.20;;;;;;;;;;5026951;28;20032;-79
2022/06/15 12:25:38;;;;;;;9.40;2.33;;;;;;;;;;5017497;28;20104;-78
2022/06/15 12:28:20;;;;;;;14.38;2.75;;;;;;;;;;5022090;28;20026;-78
2022/06/15 12:31:12;;;;;;;11.63;2.22;;;;;;;;;;5024519;28;20045;-78
2022/06/15 12:33:43;;;;;;;10.10;2.00;;;;;;;;;;5022716;28;20037;-78
2022/06/15 12:36:13;;;;;;;17.80;2.72;;;;;;;;;;5025252;28;20083;-78
2022/06/15 12:38:58;;;;;;;13.97;2.67;;;;;;;;;;5027307;28;20037;-79
2022/06/15 12:44:18;;;;;;;16.63;2.95;;;;;;;;;;5020034;28;20067;-78
2022/06/15 12:46:45;;;;;;;7.40;2.00;;;;;;;;;;5016116;28;20843;-78
2022/06/15 12:49:14;;;;;;;10.80;2.20;;;;;;;;;;5024532;28;20529;-79
2022/06/15 12:51:40;;;;;;;12.30;2.40;;;;;;;;;;5018915;28;20463;-78
2022/06/15 12:54:09;;;;;;;12.00;2.60;;;;;;;;;;5021291;28;20383;-79
2022/06/15 12:56:41;;;;;;;15.43;2.58;;;;;;;;;;5027698;28;20079;-79
2022/06/15 12:59:20;;;;;;;12.77;2.15;;;;;;;;;;5026829;28;20048;-78
2022/06/15 13:01:54;;;;;;;9.82;2.45;;;;;;;;;;5026072;28;20141;-78
2022/06/15 13:04:34;;;;;;;11.57;2.03;;;;;;;;;;5022999;28;20037;-78
2022/06/15 13:07:21;;;;;;;11.20;2.38;;;;;;;;;;5016321;28;20033;-78
2022/06/15 13:10:06;;;;;;;16.83;2.50;;;;;;;;;;5018036;28;20716;-78
2022/06/15 13:12:41;;;;;;;9.48;2.28;;;;;;;;;;5024060;28;20039;-78
2022/06/15 13:15:17;;;;;;;14.02;2.17;;;;;;;;;;5020851;28;20029;-78
2022/06/15 13:20:53;;;;;;;16.75;2.83;;;;;;;;;;5020932;28;20041;-77
2022/06/15 13:23:25;;;;;;;13.55;2.67;;;;;;;;;;5014853;28;20062;-78
2022/06/15 13:25:52;;;;;;;9.07;2.35;;;;;;;;;;5015042;28;20033;-78
2022/06/15 13:28:20;;;;;;;11.00;2.60;;;;;;;;;;5029188;28;20034;-78
2022/06/15 13:30:49;;;;;;;8.63;2.50;;;;;;;;;;5024393;28;20030;-78
2022/06/15 13:33:16;;;;;;;11.50;1.98;;;;;;;;;;5028203;28;20030;-78
2022/06/15 13:35:43;;;;;;;16.75;2.83;;;;;;;;;;5020777;28;20482;-78
2022/06/15 13:38:27;;;;;;;14.27;2.30;;;;;;;;;;5027508;28;20037;-78
2022/06/15 13:40:53;;;;;;;13.18;3.03;;;;;;;;;;5015157;28;20420;-80
2022/06/15 13:43:25;;;;;;;14.27;2.58;;;;;;;;;;5024526;28;20037;-80
2022/06/15 13:45:53;;;;;;;14.23;2.75;;;;;;;;;;5022621;28;20033;-80
2022/06/15 13:48:22;;;;;;;16.73;3.03;;;;;;;;;;5017358;28;20030;-81
2022/06/15 13:50:50;;;;;;;13.75;2.42;;;;;;;;;;5023159;28;20529;-80
2022/06/15 13:53:29;;;;;;;15.05;2.63;;;;;;;;;;5026633;28;20375;-80
2022/06/15 13:56:08;;;;;;;12.90;2.40;;;;;;;;;;5035410;28;20104;-80
2022/06/15 13:58:43;;;;;;;14.40;2.42;;;;;;;;;;5023726;28;20052;-80
2022/06/15 14:01:21;;;;;;;13.20;2.38;;;;;;;;;;5026372;28;20562;-80
2022/06/15 14:04:06;;;;;;;20.60;2.58;;;;;;;;;;5022423;28;20065;-80
2022/06/15 14:06:35;;;;;;;17.30;2.40;;;;;;;;;;5020611;28;20045;-80
2022/06/15 14:09:04;;;;;;;13.00;2.65;;;;;;;;;;5019130;28;20105;-80
2022/06/15 14:11:39;;;;;;;14.25;2.95;;;;;;;;;;5028301;28;20414;-80
2022/06/15 14:14:12;;;;;;;14.88;2.97;;;;;;;;;;5024484;28;20036;-80
2022/06/15 14:16:41;;;;;;;14.80;3.05;;;;;;;;;;5025280;28;20076;-80
2022/06/15 14:19:17;;;;;;;13.82;2.47;;;;;;;;;;5025999;28;20383;-80
2022/06/15 14:21:43;;;;;;;19.05;2.72;;;;;;;;;;5021531;28;20045;-81
2022/06/15 14:24:20;;;;;;;12.05;2.25;;;;;;;;;;5025705;28;20125;-80
2022/06/15 14:26:47;;;;;;;14.73;2.63;;;;;;;;;;5024359;28;20153;-80
2022/06/15 14:29:14;;;;;;;11.57;2.08;;;;;;;;;;5027701;28;20100;-80
2022/06/15 14:31:43;;;;;;;15.40;2.75;;;;;;;;;;5028237;28;20087;-80
2022/06/15 14:34:17;;;;;;;9.77;2.33;;;;;;;;;;5026788;28;20045;-80
2022/06/15 14:36:56;;;;;;;14.60;2.38;;;;;;;;;;5020467;28;20061;-80
2022/06/15 14:39:27;;;;;;;7.95;2.20;;;;;;;;;;5023026;28;20124;-80
2022/06/15 14:42:06;;;;;;;13.50;2.47;;;;;;;;;;5019436;28;20049;-80
2022/06/15 14:44:32;;;;;;;13.90;3.30;;;;;;;;;;5028847;28;20296;-80
2022/06/15 14:47:00;;;;;;;15.30;3.05;;;;;;;;;;5028372;28;20483;-80
2022/06/15 14:49:37;;;;;;;15.43;2.75;;;;;;;;;;5025251;28;20065;-80
2022/06/15 14:52:14;;;;;;;14.32;2.60;;;;;;;;;;5019824;28;20060;-80
2022/06/15 14:54:41;;;;;;;13.18;1.67;;;;;;;;;;5012872;28;20034;-80
2022/06/15 14:57:07;;;;;;;8.65;2.30;;;;;;;;;;5020052;28;20038;-81
2022/06/15 14:59:53;;;;;;;15.27;2.95;;;;;;;;;;5026809;28;20080;-80
2022/06/15 15:02:19;;;;;;;16.45;2.92;;;;;;;;;;5028154;28;20586;-80
2022/06/15 15:04:50;;;;;;;14.82;2.95;;;;;;;;;;5023637;28;20037;-80
2022/06/15 15:10:18;;;;;;;14.77;2.40;;;;;;;;;;5028511;28;20216;-80
2022/06/15 15:12:45;;;;;;;20.35;3.83;;;;;;;;;;5021854;28;20506;-80
2022/06/15 15:15:11;;;;;;;13.70;2.20;;;;;;;;;;5027011;28;20060;-81
2022/06/15 15:17:52;;;;;;;16.13;3.67;;;;;;;;;;5031093;28;20033;-80